Aurora, Indiana
Current Conditions -  °F | °C
As of 9:52 PM on Tuesday 25 Nov 2014 (Local Time) from KCVG Reporting Station
Overcast Overcast  
Wind Chill: 26°   Ceiling: 15000
Heat Index: 32°   Visibility: 8mi
Dew Point: 25°   Wind: 7mph
Humidity: 75%   Direction: 350°N
Pressure: 30.18"   Gusts: NA
Location:  39.06°N, 84.9°W
Report Text: KCVG 260252Z 35006KT 8SM OVC150 00/M04 A3018 RMK AO2 SLP224 T00001039 53010
Loading
Personal Weather Stations






























Interactive Weather Map New forecast layout! Learn more

10-Day Weather Forecast

Advertisements
Track Severe Weather on mobile